• Join FlightAware (Why Join?)
  • Login
  • US Flag 
Gobble Gobble! 
12:40PM EST


 

Airport Tracker/Info


-or-


 

Live Flight TrackerFlight Track Log ✈ KLM1610 ✈ 20-Oct-2013 ✈ LTBA / IST - EHAM / AMS

Flight Track Log - Related Links

Times and Time Zones

All times are in EDT time to prevent confusion due to time zone crossing. See the KLM1610 flight status page for this flight to view local times or setup timezone preferences in your user account.

Time Position Orientation Groundspeed Altitude Reporting Facility
EDT Latitude Longitude Course Direction KTS MPH feet Rate Location/Type
11:08PM 41.0430 28.8050 360° North 161 185 2,700  Level FlightAware
11:09PM 41.0570 28.8050 360° North 176 203 3,300 1,560 Climbing FlightAware
11:09PM 41.0800 28.8000 351° North 198 228 3,900 660 Climbing FlightAware
11:10PM 41.0990 28.7970 353° North 198 228 3,900 2,520 Level FlightAware
11:10PM 41.1070 28.7600 286° West 247 284 5,400 5,400 Climbing FlightAware
11:10PM 41.1230 28.7370 313° West 256 295 6,600 3,120 Climbing FlightAware
11:11PM 41.1400 28.7080 308° West 268 308 7,700 2,880 Climbing FlightAware
11:11PM 41.1580 28.6770 308° West 274 315 8,800 2,580 Climbing FlightAware
11:11PM 41.1790 28.6430 309° West 299 344 9,700 1,980 Climbing FlightAware
11:12PM 41.2090 28.5970 311° West 323 372 10,800 2,280 Climbing FlightAware
11:13PM 41.2540 28.5260 310° West 340 391 12,600 2,640 Climbing FlightAware
11:13PM 41.2880 28.4720 310° West 349 402 14,200 2,640 Climbing FlightAware
11:14PM 41.3330 28.4000 310° West 360 414 15,900 1,680 Climbing FlightAware
11:14PM 41.3680 28.3450 310° West 378 435 16,300 1,920 Climbing FlightAware
11:15PM 41.4100 28.2780 310° West 373 429 18,200 2,640 Climbing FlightAware
11:16PM 41.4490 28.2160 310° West 382 440 19,400 2,160 Climbing FlightAware
11:16PM 41.4840 28.1590 309° West 381 438 20,600 2,160 Climbing FlightAware
11:17PM 41.5290 28.0870 310° West 388 447 21,900 1,980 Climbing FlightAware
11:17PM 41.5700 28.0210 310° West 399 459 23,100 1,860 Climbing FlightAware
11:18PM 41.6120 27.9540 310° West 406 467 24,100 1,560 Climbing FlightAware
11:18PM 41.6480 27.8980 311° West 409 471 24,800 1,500 Climbing FlightAware
11:19PM 41.6980 27.8160 309° West 415 478 25,900 1,560 Climbing FlightAware
11:20PM 41.7420 27.7460 310° West 426 490 26,800 1,380 Climbing FlightAware
11:20PM 41.7850 27.6760 309° West 429 494 27,600 1,380 Climbing FlightAware
11:21PM 41.8240 27.6120 309° West 433 498 28,300 1,500 Climbing FlightAware
11:21PM 41.8820 27.5170 309° West 432 497 29,500 1,620 Climbing FlightAware
11:22PM 41.9450 27.4130 309° West 428 493 30,900 1,560 Climbing FlightAware
11:23PM 41.9890 27.3430 310° West 428 493 31,700 960 Climbing FlightAware
11:23PM 42.0260 27.2810 309° West 437 503 32,000 1,260 Climbing FlightAware
11:24PM 42.0830 27.1920 311° West 427 491 33,300 1,440 Climbing FlightAware
11:25PM 42.1330 27.1230 314° West 428 493 33,900 1,200 Climbing FlightAware
11:25PM 42.1870 27.0460 313° West 425 489 34,800 1,320 Climbing FlightAware
11:26PM 42.2270 26.9910 314° West 420 483 35,500 1,260 Climbing FlightAware
11:26PM 42.2760 26.9230 314° West 418 481 36,200 1,080 Climbing FlightAware
11:27PM 42.3220 26.8580 314° West 415 478 36,800 960 Climbing FlightAware
11:28PM 42.3740 26.7850 314° West 412 474 37,400 900 Climbing FlightAware
11:28PM 42.4140 26.7270 313° West 409 471 37,900 540 Climbing FlightAware
11:29PM 42.4590 26.6640 314° West 410 472 38,000 60 Climbing FlightAware
11:29PM 42.5060 26.5970 314° West 412 474 38,000  Level FlightAware
11:30PM 42.5520 26.5340 315° West 413 475 38,000  Level FlightAware
11:31PM 42.5980 26.4680 313° West 413 475 38,000  Level FlightAware
11:31PM 42.6440 26.4000 313° West 413 475 38,000  Level FlightAware
11:32PM 42.6970 26.3250 314° West 414 476 38,000  Level FlightAware
11:32PM 42.7340 26.2720 314° West 413 475 38,000  Level FlightAware
11:33PM 42.7830 26.2020 314° West 412 474 38,000  Level FlightAware
11:33PM 42.8300 26.1360 314° West 411 473 38,000  Level FlightAware
11:34PM 42.8690 26.0770 312° West 410 472 38,000  Level FlightAware
11:35PM 42.9190 26.0060 314° West 409 471 38,000  Level FlightAware
11:35PM 42.9650 25.9380 313° West 408 470 38,000  Level FlightAware
11:36PM 43.0170 25.8630 313° West 407 468 38,000  Level FlightAware
11:36PM 43.0540 25.8090 313° West 407 468 38,000  Level FlightAware
11:37PM 43.0836 25.7658 313° West 407 468 38,000  Level FlightAware ADS-B
11:38PM 43.1450 25.6760 313° West 405 466 38,000  Level FlightAware
11:38PM 43.1960 25.6004 313° West 405 466 38,000  Level FlightAware ADS-B
11:39PM 43.2563 25.5124 313° West 404 465 38,000  Level FlightAware ADS-B
11:40PM 43.2980 25.4504 313° West 404 465 38,000  Level FlightAware ADS-B
11:40PM 43.3680 25.3470 313° West 403 464 38,000  Level FlightAware
11:41PM 43.3891 25.3170 314° West 403 464 38,000  Level FlightAware ADS-B
11:41PM 43.4398 25.2397 312° West 403 464 38,000  Level FlightAware ADS-B
11:42PM 43.4908 25.1641 313° West 406 467 38,000  Level FlightAware ADS-B
11:43PM 43.5308 25.1054 313° West 406 467 38,000  Level FlightAware ADS-B
11:43PM 43.5824 25.0270 312° West 409 471 38,000  Level FlightAware ADS-B
11:44PM 43.6207 24.9713 313° West 411 473 38,000  Level FlightAware ADS-B
11:44PM 43.6649 24.9036 312° West 411 473 38,000  Level FlightAware ADS-B
11:45PM 43.7049 24.8436 313° West 412 474 38,000  Level FlightAware ADS-B
11:46PM 43.7750 24.7330 311° West 412 474 38,000  Level FlightAware
11:46PM 43.8130 24.6730 311° West 412 474 38,000  Level FlightAware
11:47PM 43.8560 24.6060 312° West 411 473 38,000  Level FlightAware
11:47PM 43.8980 24.5390 311° West 411 473 38,000  Level FlightAware
11:48PM 43.9410 24.4710 311° West 411 473 38,000  Level FlightAware
11:49PM 43.9890 24.3960 312° West 411 473 38,000  Level FlightAware
11:49PM 44.0310 24.3280 311° West 411 473 38,000  Level FlightAware
11:50PM 44.0730 24.2610 311° West 410 472 38,000  Level FlightAware
11:50PM 44.1220 24.1840 312° West 410 472 38,000  Level FlightAware
11:51PM 44.1700 24.1080 311° West 409 471 38,000  Level FlightAware
11:52PM 44.2170 24.0320 311° West 410 472 38,000  Level FlightAware
11:52PM 44.2610 23.9600 310° West 412 474 38,000  Level FlightAware
11:53PM 44.3100 23.8790 310° West 413 475 38,000  Level FlightAware
11:54PM 44.3550 23.8080 312° West 414 476 38,000  Level FlightAware
11:54PM 44.3970 23.7390 310° West 417 480 38,000  Level FlightAware
11:55PM 44.4590 23.6380 311° West 418 481 38,000  Level FlightAware
11:56PM 44.5090 23.5560 311° West 419 482 38,000  Level FlightAware
11:56PM 44.5480 23.4940 311° West 419 482 38,000  Level FlightAware
11:57PM 44.6000 23.4070 310° West 417 480 38,000  Level FlightAware
11:57PM 44.6430 23.3360 310° West 415 478 38,000  Level FlightAware
11:58PM 44.6890 23.2600 310° West 414 476 38,000  Level FlightAware
11:59PM 44.7390 23.1770 310° West 415 478 38,000  Level FlightAware
11:59PM 44.7810 23.1070 310° West 415 478 38,000  Level FlightAware
12:00AM 44.8280 23.0290 310° West 415 478 38,000  Level FlightAware
12:01AM 44.8800 22.9420 310° West 416 479 38,000  Level FlightAware
12:01AM 44.9250 22.8670 310° West 416 479 38,000  Level FlightAware
12:02AM 44.9710 22.7910 311° West 415 478 38,000  Level FlightAware
12:02AM 45.0050 22.7320 309° West 415 478 38,000  Level FlightAware
12:03AM 45.0560 22.6470 310° West 414 476 38,000  Level FlightAware
12:04AM 45.1020 22.5700 310° West 414 476 38,000  Level FlightAware
12:04AM 45.1440 22.4970 309° West 414 476 38,000  Level FlightAware
12:05AM 45.1840 22.4290 310° West 413 475 38,000  Level FlightAware
12:05AM 45.2290 22.3520 310° West 413 475 38,000  Level FlightAware
12:06AM 45.2720 22.2790 310° West 413 475 38,000  Level FlightAware
12:06AM 45.3170 22.2010 309° West 414 476 38,000  Level FlightAware
12:07AM 45.3560 22.1360 311° West 415 478 38,000  Level FlightAware
12:08AM 45.4010 22.0580 309° West 416 479 38,000  Level FlightAware
12:08AM 45.4440 21.9840 310° West 417 480 38,000  Level FlightAware
12:09AM 45.4810 21.9180 309° West 418 481 38,000  Level FlightAware
12:09AM 45.5180 21.8560 310° West 420 483 38,000  Level FlightAware
12:10AM 45.5640 21.7750 309° West 421 484 38,000  Level FlightAware
12:10AM 45.6070 21.6990 309° West 421 484 38,000  Level FlightAware
12:11AM 45.6560 21.6130 309° West 422 486 38,000  Level FlightAware
12:12AM 45.6990 21.5380 309° West 421 484 38,000  Level FlightAware
12:12AM 45.7450 21.4570 309° West 421 484 38,000  Level FlightAware
12:13AM 45.7880 21.3820 309° West 421 484 38,000  Level FlightAware
12:13AM 45.8300 21.3060 308° West 421 484 38,000  Level FlightAware
12:14AM 45.8740 21.2270 309° West 421 484 38,000  Level FlightAware
12:15AM 45.9160 21.1530 309° West 422 486 38,000  Level FlightAware
12:15AM 45.9580 21.0790 309° West 423 487 38,000  Level FlightAware
12:16AM 46.0030 20.9980 309° West 424 488 38,000  Level FlightAware
12:16AM 46.0430 20.9240 308° West 424 488 38,000  Level FlightAware
12:17AM 46.0830 20.8470 307° West 425 489 38,000  Level FlightAware
12:17AM 46.1250 20.7620 306° West 424 488 38,000  Level FlightAware
12:18AM 46.1670 20.6770 306° West 423 487 38,000  Level FlightAware
12:19AM 46.2010 20.6082 306° West 423 487 38,000  Level FlightAware ADS-B (LHBP / BUD)
12:19AM 46.2426 20.5235 305° West 421 484 38,000  Level FlightAware ADS-B (LHBP / BUD)
12:20AM 46.2808 20.4458 305° West 420 483 38,000  Level FlightAware ADS-B (LHBP / BUD)
12:20AM 46.3154 20.3774 306° West 420 483 38,000  Level FlightAware ADS-B (LHBP / BUD)
12:21AM 46.3608 20.2838 305° West 419 482 38,000  Level FlightAware ADS-B (LHBP / BUD)
12:21AM 46.3934 20.2179 306° West 418 481 38,000  Level FlightAware ADS-B (LHBP / BUD)
12:22AM 46.4270 20.1493 305° West 418 481 38,000  Level FlightAware ADS-B (LHBP / BUD)
12:22AM 46.4612 20.0787 305° West 418 481 38,000  Level FlightAware ADS-B (LHBP / BUD)
12:23AM 46.4937 20.0123 305° West 417 480 38,000  Level FlightAware ADS-B (LHBP / BUD)
12:23AM 46.5267 19.9437 305° West 419 482 38,000  Level FlightAware ADS-B (LHBP / BUD)
12:24AM 46.5715 19.8512 305° West 421 484 38,000  Level FlightAware ADS-B (LHBP / BUD)
12:25AM 46.6049 19.7820 305° West 421 484 38,000  Level FlightAware ADS-B (LHBP / BUD)
12:25AM 46.6386 19.7124 305° West 421 484 38,000  Level FlightAware ADS-B (LHBP / BUD)
12:26AM 46.6780 19.6310 305° West 423 487 38,000  Level FlightAware ADS-B (LHBP / BUD)
12:26AM 46.7166 19.5494 305° West 424 488 38,000  Level FlightAware ADS-B (LHBP / BUD)
12:27AM 46.7548 19.4699 305° West 423 487 38,000  Level FlightAware ADS-B (LHBP / BUD)
12:27AM 46.7898 19.3971 305° West 423 487 38,000  Level FlightAware ADS-B (LHBP / BUD)
12:28AM 46.8289 19.3150 305° West 423 487 38,000  Level FlightAware ADS-B (LHBP / BUD)
12:28AM 46.8619 19.2446 304° West 424 488 38,000  Level FlightAware ADS-B (LHBP / BUD)
12:29AM 46.8956 19.1741 305° West 424 488 38,000  Level FlightAware ADS-B (LHBP / BUD)
12:30AM 46.9336 19.0918 304° West 423 487 38,000  Level FlightAware ADS-B (LHBP / BUD)
12:30AM 46.9791 18.9952 305° West 423 487 38,000  Level FlightAware ADS-B (LHBP / BUD)
12:31AM 47.0163 18.9149 304° West 422 486 38,000  Level FlightAware ADS-B (LHBP / BUD)
12:31AM 47.0607 18.8205 305° West 422 486 38,000  Level FlightAware ADS-B (LHBP / BUD)
12:32AM 47.1033 18.7285 304° West 422 486 38,000  Level FlightAware ADS-B (LHBP / BUD)
12:33AM 47.1378 18.6552 305° West 421 484 38,000  Level FlightAware ADS-B (LHBP / BUD)
12:33AM 47.1644 18.5985 305° West 421 484 38,000  Level FlightAware ADS-B (LHBP / BUD)
12:34AM 47.2148 18.4894 304° West 421 484 38,000  Level FlightAware ADS-B (LHBP / BUD)
12:35AM 47.2691 18.3686 304° West 421 484 38,000  Level FlightAware ADS-B (LHBP / BUD)
12:35AM 47.3126 18.2739 304° West 420 483 38,000  Level FlightAware ADS-B (LHBP / BUD)
12:36AM 47.3540 18.1836 304° West 420 483 38,000  Level FlightAware ADS-B (LHBP / BUD)
12:36AM 47.3876 18.1101 304° West 420 483 38,000  Level FlightAware ADS-B (LHBP / BUD)
12:37AM 47.4236 18.0294 303° West 418 481 38,000  Level FlightAware ADS-B (LHBP / BUD)
12:38AM 47.4870 17.8890 304° West 419 482 38,000  Level FlightAware
12:39AM 47.5230 17.8110 304° West 417 480 38,000  Level FlightAware
12:39AM 47.5630 17.7200 303° West 417 480 38,000  Level FlightAware
12:40AM 47.6020 17.6320 303° West 417 480 38,000  Level FlightAware
12:40AM 47.6330 17.5650 304° West 416 479 38,000  Level FlightAware
12:41AM 47.6740 17.4720 303° West 416 479 38,000  Level FlightAware
12:42AM 47.7130 17.3840 303° West 415 478 38,000  Level FlightAware
12:42AM 47.7520 17.3060 307° West 415 478 38,000  Level FlightAware
12:43AM 47.7920 17.2330 309° West 415 478 38,000  Level FlightAware
12:43AM 47.8330 17.1550 308° West 413 475 38,000  Level FlightAware
12:44AM 47.8770 17.0740 309° West 411 473 38,000  Level FlightAware
12:44AM 47.9032 17.0252 309° West 411 473 38,000  Level FlightAware ADS-B (LHBP / BUD)
12:45AM 47.9590 16.9220 309° West 409 471 38,000  Level FlightAware
12:46AM 48.0010 16.8440 309° West 409 471 38,000  Level FlightAware
12:46AM 48.0460 16.7610 309° West 411 473 38,000  Level FlightAware
12:47AM 48.0850 16.6870 308° West 412 474 38,000  Level FlightAware
12:47AM 48.1270 16.6090 309° West 411 473 38,000  Level FlightAware
12:48AM 48.1630 16.5400 308° West 411 473 38,000  Level FlightAware
12:49AM 48.2070 16.4580 309° West 411 473 38,000  Level FlightAware
12:49AM 48.2460 16.3840 308° West 410 472 38,000  Level FlightAware
12:50AM 48.2890 16.3010 308° West 410 472 38,000  Level FlightAware
12:50AM 48.3300 16.2230 308° West 410 472 38,000  Level FlightAware
12:51AM 48.3750 16.1380 309° West 411 473 38,000  Level FlightAware
12:51AM 48.4097 16.0702 308° West 407 468 38,000  Level FlightAware ADS-B (EDDM / MUC)
12:52AM 48.4470 15.9983 308° West 406 467 38,000  Level FlightAware ADS-B (EDDM / MUC)
12:52AM 48.4868 15.9217 308° West 406 467 38,000  Level FlightAware ADS-B (EDDM / MUC)
12:53AM 48.5364 15.8268 308° West 408 470 38,000  Level FlightAware ADS-B (EDDM / MUC)
12:54AM 48.5844 15.7336 308° West 408 470 38,000  Level FlightAware ADS-B (EDDM / MUC)
12:54AM 48.6190 15.6650 307° West 414 476 38,000  Level FlightAware
12:55AM 48.6301 15.6445 309° West 410 472 38,000  Level FlightAware ADS-B (EDDM / MUC)
12:55AM 48.6812 15.5459 308° West 409 471 38,000  Level FlightAware ADS-B (EDDM / MUC)
12:56AM 48.7321 15.4446 307° West 418 481 38,000  Level FlightAware ADS-B (EDDM / MUC)
12:56AM 48.7681 15.3791 310° West 413 475 38,000  Level FlightAware ADS-B (EDDM / MUC)
12:57AM 48.8159 15.2911 310° West 413 475 38,000  Level FlightAware ADS-B (EDDM / MUC)
12:58AM 48.8542 15.2185 309° West 415 478 38,000  Level FlightAware ADS-B (EDDM / MUC)
12:58AM 48.8921 15.1483 309° West 413 475 38,000  Level FlightAware ADS-B (EDDM / MUC)
12:59AM 48.9306 15.0741 308° West 411 473 38,000  Level FlightAware ADS-B (EDDM / MUC)
12:59AM 48.9779 14.9861 309° West 412 474 38,000  Level FlightAware ADS-B (EDDM / MUC)
01:00AM 49.0156 14.9140 309° West 412 474 38,000  Level FlightAware ADS-B (EDDM / MUC)
01:00AM 49.0567 14.8375 309° West 411 473 38,000  Level FlightAware ADS-B (EDDM / MUC)
01:01AM 49.0982 14.7582 309° West 413 475 38,000  Level FlightAware ADS-B (LKPR / PRG)
01:02AM 49.1478 14.6621 308° West 416 479 38,000  Level FlightAware ADS-B (LKPR / PRG)
01:02AM 49.1840 14.5929 309° West 417 480 38,000  Level FlightAware ADS-B (EDDM / MUC)
01:03AM 49.2331 14.4986 309° West 418 481 38,000  Level FlightAware ADS-B (LKPR / PRG)
01:04AM 49.2809 14.4081 309° West 418 481 38,000  Level FlightAware ADS-B (LKPR / PRG)
01:04AM 49.3152 14.3412 308° West 415 478 38,000  Level FlightAware ADS-B (LKPR / PRG)
01:05AM 49.3620 14.2512 309° West 414 476 38,000  Level FlightAware ADS-B (LKPR / PRG)
01:05AM 49.4100 14.1570 308° West 414 476 38,000  Level FlightAware
01:06AM 49.4209 14.1362 309° West 415 478 38,000  Level FlightAware ADS-B (LKPR / PRG)
01:06AM 49.4508 14.0785 309° West 414 476 38,000  Level FlightAware ADS-B (LKPR / PRG)
01:07AM 49.4950 13.9910 308° West 413 475 38,000  Level FlightAware
01:07AM 49.5050 13.9722 309° West 414 476 38,000  Level FlightAware ADS-B (LKPR / PRG)
01:07AM 49.5413 13.9005 308° West 412 474 38,000  Level FlightAware ADS-B (LKPR / PRG)
01:08AM 49.5756 13.8316 308° West 408 470 38,000  Level FlightAware ADS-B (LKPR / PRG)
01:08AM 49.6106 13.7631 308° West 407 468 38,000  Level FlightAware ADS-B (LKPR / PRG)
01:09AM 49.6569 13.6718 308° West 406 467 38,000  Level FlightAware ADS-B (LKPR / PRG)
01:09AM 49.6909 13.6033 308° West 405 466 38,000  Level FlightAware ADS-B (LKPR / PRG)
01:10AM 49.7209 13.5440 308° West 404 465 38,000  Level FlightAware ADS-B (LKPR / PRG)
01:10AM 49.7596 13.4665 308° West 403 464 38,000  Level FlightAware ADS-B (LKPR / PRG)
01:11AM 49.7933 13.4004 308° West 404 465 38,000  Level FlightAware ADS-B (LKPR / PRG)
01:11AM 49.8277 13.3295 307° West 405 466 38,000  Level FlightAware ADS-B (LKPR / PRG)
01:12AM 49.8620 13.2606 308° West 405 466 38,000  Level FlightAware ADS-B (LKPR / PRG)
01:12AM 49.8961 13.1916 308° West 406 467 38,000  Level FlightAware ADS-B (LKPR / PRG)
01:13AM 49.9398 13.1037 308° West 407 468 38,000  Level FlightAware ADS-B (LKPR / PRG)
01:14AM 49.9737 13.0365 308° West 409 471 38,000  Level FlightAware ADS-B (LKPR / PRG)
01:14AM 50.0231 12.9358 307° West 411 473 38,000  Level FlightAware ADS-B (LKPR / PRG)
01:15AM 50.0571 12.8650 307° West 414 476 38,000  Level FlightAware ADS-B (LKPR / PRG)
01:15AM 50.1050 12.7680 308° West 411 473 38,000  Level FlightAware
01:16AM 50.1470 12.6810 307° West 411 473 38,000  Level FlightAware
01:17AM 50.1870 12.5980 307° West 411 473 38,000  Level FlightAware
01:17AM 50.2240 12.5200 307° West 410 472 38,000  Level FlightAware
01:18AM 50.2610 12.4280 302° West 408 470 38,000  Level FlightAware
01:18AM 50.2950 12.3450 303° West 408 470 38,000  Level FlightAware
01:19AM 50.3270 12.2620 301° West 408 470 38,000  Level FlightAware
01:19AM 50.3610 12.1740 301° West 409 471 38,000  Level FlightAware
01:20AM 50.3990 12.0760 301° West 408 470 38,000  Level FlightAware
01:21AM 50.4330 11.9900 302° West 408 470 38,000  Level FlightAware
01:21AM 50.4700 11.8970 302° West 407 468 38,000 300 Level FlightAware
01:22AM 50.5010 11.8160 301° West 406 467 38,400 840 Climbing FlightAware
01:22AM 50.5350 11.7290 302° West 401 461 39,000 1,020 Climbing FlightAware
01:23AM 50.5690 11.6420 302° West 398 458 39,600 840 Climbing FlightAware
01:24AM 50.6010 11.5590 301° West 397 457 40,000 300 Climbing FlightAware
01:24AM 50.6360 11.4670 301° West 397 457 40,000  Level FlightAware
01:25AM 50.6690 11.3810 301° West 396 456 40,000  Level FlightAware
01:25AM 50.7030 11.2920 301° West 392 451 40,000  Level FlightAware
01:26AM 50.7380 11.2010 301° West 394 453 40,000  Level FlightAware
01:27AM 50.7690 11.1200 301° West 397 457 40,000  Level FlightAware
01:27AM 50.8010 11.0320 300° West 398 458 40,000  Level FlightAware
01:28AM 50.8350 10.9420 301° West 399 459 40,000  Level FlightAware
01:28AM 50.8690 10.8520 301° West 400 460 40,000  Level FlightAware
01:29AM 50.9030 10.7610 301° West 403 464 40,000  Level FlightAware
01:29AM 50.9340 10.6790 301° West 404 465 40,000  Level FlightAware
01:30AM 50.9700 10.5820 301° West 406 467 40,000  Level FlightAware
01:31AM 51.0000 10.5000 300° West 408 470 40,000  Level FlightAware
01:31AM 51.0340 10.4090 301° West 409 471 40,000  Level FlightAware
01:32AM 51.0660 10.3240 301° West 407 468 40,000  Level FlightAware
01:32AM 51.1020 10.2230 300° West 406 467 40,000  Level FlightAware
01:33AM 51.1340 10.1350 300° West 405 466 40,000  Level FlightAware
01:34AM 51.1660 10.0480 300° West 405 466 40,000  Level FlightAware
01:34AM 51.2000 9.9550 300° West 406 467 40,000  Level FlightAware
01:35AM 51.2340 9.8590 300° West 405 466 40,000  Level FlightAware
01:35AM 51.2650 9.7730 300° West 407 468 40,000  Level FlightAware
01:36AM 51.2990 9.6770 300° West 408 470 40,000  Level FlightAware
01:36AM 51.3300 9.5930 301° West 409 471 40,000  Level FlightAware
01:37AM 51.3610 9.5060 300° West 409 471 40,000  Level FlightAware
01:38AM 51.3950 9.4090 299° West 408 470 40,000  Level FlightAware
01:38AM 51.4250 9.3240 300° West 408 470 40,000  Level FlightAware
01:39AM 51.4570 9.2350 300° West 409 471 40,000  Level FlightAware
01:39AM 51.4920 9.1342 299° West 411 473 40,000  Level FlightAware ADS-B
01:40AM 51.5236 9.0442 299° West 411 473 40,000  Level FlightAware ADS-B
01:41AM 51.5610 8.9349 299° West 412 474 40,000  Level FlightAware ADS-B
01:41AM 51.5900 8.8521 299° West 412 474 40,000  Level FlightAware ADS-B
01:42AM 51.6176 8.7717 299° West 413 475 40,000  Level FlightAware ADS-B
01:42AM 51.6473 8.6858 299° West 414 476 40,000  Level FlightAware ADS-B
01:43AM 51.6762 8.6021 299° West 417 480 40,000  Level FlightAware ADS-B
01:43AM 51.7067 8.5123 299° West 418 481 40,000  Level FlightAware ADS-B
01:44AM 51.7365 8.4249 299° West 419 482 40,000  Level FlightAware ADS-B
01:44AM 51.7647 8.3425 299° West 421 484 40,000  Level FlightAware ADS-B
01:45AM 51.7925 8.2600 299° West 422 486 40,000 -120 Level FlightAware ADS-B
01:45AM 51.8216 8.1743 299° West 421 484 39,900 -600 Descending FlightAware ADS-B
01:46AM 51.8496 8.0914 299° West 421 484 39,400 -1,020 Descending FlightAware ADS-B
01:46AM 51.8781 8.0061 299° West 417 480 38,900 -960 Descending FlightAware ADS-B
01:47AM 51.9070 7.9191 298° West 412 474 38,400 -1,020 Descending FlightAware ADS-B
01:47AM 51.9341 7.8390 299° West 400 460 37,900 -900 Descending FlightAware ADS-B
01:48AM 51.9602 7.7610 298° West 390 449 37,500 -1,020 Descending FlightAware ADS-B
01:48AM 51.9869 7.6797 298° West 383 441 36,900 -1,020 Descending FlightAware ADS-B
01:49AM 52.0117 7.6036 298° West 383 441 36,500 -1,020 Descending FlightAware ADS-B
01:49AM 52.0374 7.5251 298° West 380 437 35,900 -1,800 Descending FlightAware ADS-B
01:50AM 52.0614 7.4525 298° West 377 434 34,700 -2,520 Descending FlightAware ADS-B
01:50AM 52.0880 7.3702 298° West 374 430 33,300 -2,340 Descending FlightAware ADS-B
01:51AM 52.1121 7.2960 298° West 374 430 32,300 -2,100 Descending FlightAware ADS-B
01:51AM 52.1365 7.2211 298° West 378 435 31,200 -2,100 Descending FlightAware ADS-B
01:52AM 52.1611 7.1458 298° West 377 434 30,200 -2,100 Descending FlightAware ADS-B
01:52AM 52.1863 7.0685 298° West 372 428 29,100 -2,100 Descending FlightAware ADS-B
01:53AM 52.2108 6.9948 299° West 371 427 28,100 -1,500 Descending FlightAware ADS-B
01:53AM 52.2427 6.9240 306° West 381 438 27,600 -1,020 Descending FlightAware ADS-B
01:54AM 52.2770 6.8552 309° West 378 435 27,100 -1,620 Descending FlightAware ADS-B
01:55AM 52.3212 6.7654 309° West 368 423 25,700 -2,220 Descending FlightAware ADS-B
01:55AM 52.3453 6.6823 295° West 353 406 24,300 -2,340 Descending FlightAware ADS-B
01:56AM 52.3576 6.6031 284° West 347 399 23,200 -2,100 Descending FlightAware ADS-B
01:56AM 52.3676 6.5377 284° West 342 394 22,200 -2,100 Descending FlightAware ADS-B
01:57AM 52.3810 6.4507 284° West 336 387 21,100 -1,980 Descending FlightAware ADS-B
01:57AM 52.3911 6.3845 284° West 332 382 20,200 -1,920 Descending FlightAware ADS-B
01:58AM 52.4100 6.2620 284° West 324 373 18,600 -1,980 Descending FlightAware
01:59AM 52.4230 6.1760 284° West 318 366 17,500 -1,980 Descending FlightAware
01:59AM 52.4350 6.0910 283° West 311 358 16,300 -1,860 Descending FlightAware
02:00AM 52.4460 6.0180 284° West 305 351 15,400 -1,800 Descending FlightAware
02:00AM 52.4570 5.9400 283° West 298 343 14,300 -1,860 Descending FlightAware
02:01AM 52.4690 5.8600 284° West 293 337 13,200 -1,740 Descending FlightAware
02:02AM 52.4790 5.7890 283° West 289 333 12,300 -1,680 Descending FlightAware
02:02AM 52.4910 5.7130 285° West 285 328 11,300 -1,680 Descending FlightAware
02:03AM 52.5020 5.6350 283° West 279 321 10,300 -1,260 Descending FlightAware
02:03AM 52.5090 5.5790 282° West 268 308 10,000 -900 Descending FlightAware
02:04AM 52.5140 5.5400 282° West 259 298 9,600 -1,200 Descending FlightAware
02:04AM 52.5180 5.5030 280° West 254 292 9,200 -1,080 Descending FlightAware
02:04AM 52.5220 5.4640 280° West 255 293 8,900 -960 Descending FlightAware
02:05AM 52.5270 5.4180 280° West 253 291 8,500 -1,020 Descending FlightAware
02:05AM 52.5290 5.3970 279° West 252 290 8,300 -960 Descending FlightAware
02:05AM 52.5340 5.3570 282° West 252 290 8,000 -1,020 Descending FlightAware
02:06AM 52.5380 5.3160 279° West 252 290 7,600 -1,140 Descending FlightAware
02:06AM 52.5430 5.2750 281° West 249 287 7,200 -1,020 Descending FlightAware
02:06AM 52.5460 5.2480 280° West 251 289 7,000 -960 Descending FlightAware
02:07AM 52.5500 5.2050 279° West 252 290 6,600 -1,020 Descending FlightAware
02:07AM 52.5530 5.1820 282° West 253 291 6,400 -960 Descending FlightAware
02:07AM 52.5560 5.1440 277° West 252 290 6,100 -1,080 Descending FlightAware
02:07AM 52.5600 5.1040 279° West 252 290 5,700 -960 Descending FlightAware
02:08AM 52.5650 5.0610 281° West 252 290 5,400 -960 Descending FlightAware
02:08AM 52.5680 5.0260 278° West 245 282 5,000 -960 Descending FlightAware
02:08AM 52.5710 4.9930 279° West 236 272 4,800 -660 Descending FlightAware
02:09AM 52.5710 4.9750 270° West 231 266 4,700 -900 Descending FlightAware
02:09AM 52.5710 4.9580 270° West 227 261 4,500 -960 Descending FlightAware
02:09AM 52.5700 4.9220 267° West 222 255 4,200 -960 Descending FlightAware
02:09AM 52.5700 4.8920 270° West 222 255 3,900 -1,080 Descending FlightAware
02:10AM 52.5690 4.8630 267° West 222 255 3,600 -960 Descending FlightAware
02:10AM 52.5690 4.8390 270° West 222 255 3,400 -900 Descending FlightAware
02:10AM 52.5680 4.8140 266° West 217 250 3,200 -720 Descending FlightAware
02:10AM 52.5670 4.8100 248° West 215 247 3,200 -480 Level FlightAware
02:10AM 52.5620 4.7960 240° Southwest 206 237 3,100 -300 Descending FlightAware
02:11AM 52.5550 4.7850 224° Southwest 202 232 3,100 180 Level FlightAware
02:11AM 52.5350 4.7680 207° Southwest 205 236 3,200 120 Climbing FlightAware
02:11AM 52.5170 4.7600 195° South 208 239 3,200  Level FlightAware
02:11AM 52.5060 4.7570 189° South 210 242 3,200 -240 Level FlightAware
02:12AM 52.4850 4.7540 185° South 211 243 3,100 -480 Descending FlightAware
02:12AM 52.4680 4.7520 184° South 202 232 2,900 -660 Descending FlightAware
02:12AM 52.4500 4.7510 182° South 190 219 2,700 -900 Descending FlightAware
02:13AM 52.4320 4.7500 182° South 182 209 2,300 -1,140 Descending FlightAware
02:13AM 52.4230 4.7490 184° South 175 201 2,100 -1,200 Descending FlightAware
02:13AM 52.4040 4.7470 184° South 155 178 1,600 -1,140 Descending FlightAware
02:14AM 52.3910 4.7450 185° South 141 162 1,300 -780 Descending FlightAware
02:14AM 52.3780 4.7440 183° South 129 148 1,100 -720 Descending FlightAware
02:14AM 52.3640 4.7430 182° South 130 150 800 -720 Descending FlightAware
02:15AM 52.3520 4.7420 183° South 130 150 600 -660 Descending FlightAware
02:15AM 52.3410 4.7410 183° South 132 152 400 -720 Descending FlightAware
02:16AM 52.3250 4.7390 184° South 120 138 -840 Descending FlightAware